sensor_id;sensor_type;location;lat;lon;timestamp;pressure;altitude;pressure_sealevel;temperature;humidity
46682;BME280;34101;53.430;-2.224;2024-03-02T00:00:57;98649.88;;;5.58;74.87
46682;BME280;34101;53.430;-2.224;2024-03-02T00:03:25;98654.00;;;5.62;74.95
46682;BME280;34101;53.430;-2.224;2024-03-02T00:05:53;98652.72;;;5.63;75.00
46682;BME280;34101;53.430;-2.224;2024-03-02T00:08:23;98653.09;;;5.61;75.07
46682;BME280;34101;53.430;-2.224;2024-03-02T00:10:51;98653.81;;;5.59;75.17
46682;BME280;34101;53.430;-2.224;2024-03-02T00:13:21;98654.14;;;5.53;75.27
46682;BME280;34101;53.430;-2.224;2024-03-02T00:15:52;98655.73;;;5.48;75.48
46682;BME280;34101;53.430;-2.224;2024-03-02T00:18:21;98655.40;;;5.45;75.71
46682;BME280;34101;53.430;-2.224;2024-03-02T00:20:53;98657.71;;;5.48;76.00
46682;BME280;34101;53.430;-2.224;2024-03-02T00:23:23;98656.97;;;5.51;75.91
46682;BME280;34101;53.430;-2.224;2024-03-02T00:25:52;98653.58;;;5.52;75.85
46682;BME280;34101;53.430;-2.224;2024-03-02T00:28:23;98652.96;;;5.53;75.83
46682;BME280;34101;53.430;-2.224;2024-03-02T00:30:59;98655.05;;;5.54;75.88
46682;BME280;34101;53.430;-2.224;2024-03-02T00:33:33;98651.53;;;5.54;75.98
46682;BME280;34101;53.430;-2.224;2024-03-02T00:36:01;98649.20;;;5.54;75.71
46682;BME280;34101;53.430;-2.224;2024-03-02T00:38:31;98646.60;;;5.51;75.71
46682;BME280;34101;53.430;-2.224;2024-03-02T00:41:00;98649.49;;;5.53;75.75
46682;BME280;34101;53.430;-2.224;2024-03-02T00:43:54;98653.14;;;5.60;75.69
46682;BME280;34101;53.430;-2.224;2024-03-02T00:46:24;98655.98;;;5.66;75.45
46682;BME280;34101;53.430;-2.224;2024-03-02T00:48:54;98658.49;;;5.68;75.12
46682;BME280;34101;53.430;-2.224;2024-03-02T00:51:24;98653.78;;;5.73;75.25
46682;BME280;34101;53.430;-2.224;2024-03-02T00:53:52;98649.89;;;5.78;75.19
46682;BME280;34101;53.430;-2.224;2024-03-02T00:56:20;98647.93;;;5.84;75.36
46682;BME280;34101;53.430;-2.224;2024-03-02T00:58:47;98646.26;;;5.83;75.07
46682;BME280;34101;53.430;-2.224;2024-03-02T01:01:15;98641.48;;;5.82;74.85
46682;BME280;34101;53.430;-2.224;2024-03-02T01:03:43;98636.66;;;5.84;74.97
46682;BME280;34101;53.430;-2.224;2024-03-02T01:06:11;98637.48;;;5.84;74.90
46682;BME280;34101;53.430;-2.224;2024-03-02T01:08:39;98637.16;;;5.86;74.87
46682;BME280;34101;53.430;-2.224;2024-03-02T01:11:07;98636.32;;;5.90;74.85
46682;BME280;34101;53.430;-2.224;2024-03-02T01:13:34;98631.95;;;5.91;74.60
46682;BME280;34101;53.430;-2.224;2024-03-02T01:16:02;98634.42;;;5.97;74.63
46682;BME280;34101;53.430;-2.224;2024-03-02T01:18:30;98636.97;;;6.02;74.55
46682;BME280;34101;53.430;-2.224;2024-03-02T01:20:57;98639.31;;;6.09;74.39
46682;BME280;34101;53.430;-2.224;2024-03-02T01:23:26;98641.16;;;6.16;74.35
46682;BME280;34101;53.430;-2.224;2024-03-02T01:25:53;98646.86;;;6.20;74.03
46682;BME280;34101;53.430;-2.224;2024-03-02T01:28:21;98650.81;;;6.26;73.84
46682;BME280;34101;53.430;-2.224;2024-03-02T01:30:48;98653.72;;;6.28;73.46
46682;BME280;34101;53.430;-2.224;2024-03-02T01:33:16;98653.75;;;6.18;73.23
46682;BME280;34101;53.430;-2.224;2024-03-02T01:35:45;98652.12;;;6.22;73.96
46682;BME280;34101;53.430;-2.224;2024-03-02T01:38:13;98648.73;;;6.27;74.02
46682;BME280;34101;53.430;-2.224;2024-03-02T01:40:42;98647.73;;;6.29;73.89
46682;BME280;34101;53.430;-2.224;2024-03-02T01:43:09;98646.93;;;6.27;74.37
46682;BME280;34101;53.430;-2.224;2024-03-02T01:45:37;98648.09;;;6.32;74.50
46682;BME280;34101;53.430;-2.224;2024-03-02T01:48:06;98647.41;;;6.36;74.33
46682;BME280;34101;53.430;-2.224;2024-03-02T01:50:34;98645.33;;;6.39;74.26
46682;BME280;34101;53.430;-2.224;2024-03-02T01:53:02;98639.72;;;6.43;74.39
46682;BME280;34101;53.430;-2.224;2024-03-02T01:55:30;98636.04;;;6.47;74.22
46682;BME280;34101;53.430;-2.224;2024-03-02T01:57:57;98633.69;;;6.51;74.39
46682;BME280;34101;53.430;-2.224;2024-03-02T02:00:39;98634.46;;;6.59;74.16
46682;BME280;34101;53.430;-2.224;2024-03-02T02:03:06;98636.52;;;6.62;73.92
46682;BME280;34101;53.430;-2.224;2024-03-02T02:05:33;98635.48;;;6.65;73.61
46682;BME280;34101;53.430;-2.224;2024-03-02T02:08:02;98633.23;;;6.67;73.80
46682;BME280;34101;53.430;-2.224;2024-03-02T02:10:29;98629.57;;;6.72;73.58
46682;BME280;34101;53.430;-2.224;2024-03-02T02:12:57;98629.27;;;6.72;73.60
46682;BME280;34101;53.430;-2.224;2024-03-02T02:15:25;98625.37;;;6.70;73.59
46682;BME280;34101;53.430;-2.224;2024-03-02T02:17:54;98621.35;;;6.70;73.57
46682;BME280;34101;53.430;-2.224;2024-03-02T02:20:23;98615.15;;;6.72;73.37
46682;BME280;34101;53.430;-2.224;2024-03-02T02:23:00;98611.46;;;6.70;73.43
46682;BME280;34101;53.430;-2.224;2024-03-02T02:25:29;98611.30;;;6.68;73.36
46682;BME280;34101;53.430;-2.224;2024-03-02T02:27:57;98608.16;;;6.63;73.48
46682;BME280;34101;53.430;-2.224;2024-03-02T02:30:26;98607.48;;;6.53;73.60
46682;BME280;34101;53.430;-2.224;2024-03-02T02:32:54;98606.74;;;6.46;73.93
46682;BME280;34101;53.430;-2.224;2024-03-02T02:35:24;98604.05;;;6.44;73.99
46682;BME280;34101;53.430;-2.224;2024-03-02T02:37:54;98603.62;;;6.41;73.95
46682;BME280;34101;53.430;-2.224;2024-03-02T02:40:23;98605.40;;;6.39;74.01
46682;BME280;34101;53.430;-2.224;2024-03-02T02:42:51;98601.58;;;6.41;74.03
46682;BME280;34101;53.430;-2.224;2024-03-02T02:45:19;98597.73;;;6.44;74.05
46682;BME280;34101;53.430;-2.224;2024-03-02T02:47:46;98596.09;;;6.46;73.95
46682;BME280;34101;53.430;-2.224;2024-03-02T02:50:13;98595.14;;;6.45;74.10
46682;BME280;34101;53.430;-2.224;2024-03-02T02:52:42;98593.29;;;6.45;73.97
46682;BME280;34101;53.430;-2.224;2024-03-02T02:55:12;98591.77;;;6.41;73.81
46682;BME280;34101;53.430;-2.224;2024-03-02T02:57:40;98588.34;;;6.37;74.10
46682;BME280;34101;53.430;-2.224;2024-03-02T03:00:09;98585.56;;;6.30;74.23
46682;BME280;34101;53.430;-2.224;2024-03-02T03:02:38;98587.27;;;6.22;74.44
46682;BME280;34101;53.430;-2.224;2024-03-02T03:05:07;98586.00;;;6.11;74.66
46682;BME280;34101;53.430;-2.224;2024-03-02T03:07:36;98587.49;;;6.03;74.86
46682;BME280;34101;53.430;-2.224;2024-03-02T03:10:04;98584.33;;;5.98;74.71
46682;BME280;34101;53.430;-2.224;2024-03-02T03:12:32;98588.66;;;5.94;75.00
46682;BME280;34101;53.430;-2.224;2024-03-02T03:15:00;98596.68;;;5.94;75.19
46682;BME280;34101;53.430;-2.224;2024-03-02T03:17:27;98599.60;;;5.92;75.12
46682;BME280;34101;53.430;-2.224;2024-03-02T03:19:55;98600.56;;;5.91;74.66
46682;BME280;34101;53.430;-2.224;2024-03-02T03:22:23;98600.94;;;5.92;74.66
46682;BME280;34101;53.430;-2.224;2024-03-02T03:24:51;98600.02;;;5.92;74.59
46682;BME280;34101;53.430;-2.224;2024-03-02T03:27:19;98599.44;;;5.89;74.58
46682;BME280;34101;53.430;-2.224;2024-03-02T03:29:46;98593.49;;;5.90;74.52
46682;BME280;34101;53.430;-2.224;2024-03-02T03:32:14;98590.17;;;5.86;74.37
46682;BME280;34101;53.430;-2.224;2024-03-02T03:34:41;98588.43;;;5.89;74.54
46682;BME280;34101;53.430;-2.224;2024-03-02T03:37:09;98582.30;;;5.92;74.61
46682;BME280;34101;53.430;-2.224;2024-03-02T03:39:36;98581.10;;;5.95;74.60
46682;BME280;34101;53.430;-2.224;2024-03-02T03:42:04;98585.63;;;5.97;74.67
46682;BME280;34101;53.430;-2.224;2024-03-02T03:44:32;98583.90;;;5.99;74.78
46682;BME280;34101;53.430;-2.224;2024-03-02T03:47:00;98584.00;;;5.99;74.81
46682;BME280;34101;53.430;-2.224;2024-03-02T03:49:27;98586.63;;;6.03;74.78
46682;BME280;34101;53.430;-2.224;2024-03-02T03:51:55;98584.19;;;6.06;74.80
46682;BME280;34101;53.430;-2.224;2024-03-02T03:54:22;98585.30;;;6.07;74.67
46682;BME280;34101;53.430;-2.224;2024-03-02T03:56:50;98586.78;;;6.10;74.51
46682;BME280;34101;53.430;-2.224;2024-03-02T03:59:18;98582.62;;;6.13;74.43
46682;BME280;34101;53.430;-2.224;2024-03-02T04:01:45;98582.88;;;6.15;74.29
46682;BME280;34101;53.430;-2.224;2024-03-02T04:04:13;98578.45;;;6.16;74.40
46682;BME280;34101;53.430;-2.224;2024-03-02T04:06:42;98577.24;;;6.21;74.36
46682;BME280;34101;53.430;-2.224;2024-03-02T04:09:09;98578.54;;;6.24;74.36
46682;BME280;34101;53.430;-2.224;2024-03-02T04:11:37;98575.82;;;6.23;74.28
46682;BME280;34101;53.430;-2.224;2024-03-02T04:14:04;98577.78;;;6.20;74.26
46682;BME280;34101;53.430;-2.224;2024-03-02T04:16:32;98579.76;;;6.21;74.40
46682;BME280;34101;53.430;-2.224;2024-03-02T04:19:00;98580.31;;;6.23;74.23
46682;BME280;34101;53.430;-2.224;2024-03-02T04:21:28;98580.10;;;6.23;74.21
46682;BME280;34101;53.430;-2.224;2024-03-02T04:23:55;98581.58;;;6.24;74.21
46682;BME280;34101;53.430;-2.224;2024-03-02T04:26:22;98582.29;;;6.26;74.24
46682;BME280;34101;53.430;-2.224;2024-03-02T04:28:50;98586.07;;;6.28;73.91
46682;BME280;34101;53.430;-2.224;2024-03-02T04:31:17;98585.16;;;6.31;73.91
46682;BME280;34101;53.430;-2.224;2024-03-02T04:33:45;98586.01;;;6.33;73.90
46682;BME280;34101;53.430;-2.224;2024-03-02T04:36:13;98587.83;;;6.34;73.72
46682;BME280;34101;53.430;-2.224;2024-03-02T04:38:40;98586.83;;;6.37;73.70
46682;BME280;34101;53.430;-2.224;2024-03-02T04:41:08;98586.07;;;6.34;73.79
46682;BME280;34101;53.430;-2.224;2024-03-02T04:43:35;98589.10;;;6.32;73.69
46682;BME280;34101;53.430;-2.224;2024-03-02T04:46:04;98586.59;;;6.28;73.82
46682;BME280;34101;53.430;-2.224;2024-03-02T04:48:32;98583.35;;;6.21;73.99
46682;BME280;34101;53.430;-2.224;2024-03-02T04:51:00;98579.72;;;6.13;74.10
46682;BME280;34101;53.430;-2.224;2024-03-02T04:53:27;98580.15;;;6.06;74.45
46682;BME280;34101;53.430;-2.224;2024-03-02T04:55:55;98581.54;;;6.00;74.49
46682;BME280;34101;53.430;-2.224;2024-03-02T04:58:22;98588.86;;;5.96;74.62
46682;BME280;34101;53.430;-2.224;2024-03-02T05:00:50;98588.54;;;5.95;74.70
46682;BME280;34101;53.430;-2.224;2024-03-02T05:03:17;98586.44;;;5.92;74.53
46682;BME280;34101;53.430;-2.224;2024-03-02T05:05:45;98582.63;;;5.85;74.90
46682;BME280;34101;53.430;-2.224;2024-03-02T05:08:13;98587.66;;;5.82;75.04
46682;BME280;34101;53.430;-2.224;2024-03-02T05:10:41;98590.59;;;5.78;75.03
46682;BME280;34101;53.430;-2.224;2024-03-02T05:13:09;98593.44;;;5.73;75.18
46682;BME280;34101;53.430;-2.224;2024-03-02T05:15:42;98594.27;;;5.70;75.36
46682;BME280;34101;53.430;-2.224;2024-03-02T05:18:11;98592.68;;;5.65;75.34
46682;BME280;34101;53.430;-2.224;2024-03-02T05:20:38;98587.37;;;5.60;75.52
46682;BME280;34101;53.430;-2.224;2024-03-02T05:23:05;98582.86;;;5.57;75.63
46682;BME280;34101;53.430;-2.224;2024-03-02T05:25:33;98587.72;;;5.52;75.63
46682;BME280;34101;53.430;-2.224;2024-03-02T05:28:01;98590.62;;;5.47;75.72
46682;BME280;34101;53.430;-2.224;2024-03-02T05:30:29;98588.76;;;5.41;75.66
46682;BME280;34101;53.430;-2.224;2024-03-02T05:32:56;98592.88;;;5.35;75.65
46682;BME280;34101;53.430;-2.224;2024-03-02T05:35:24;98598.38;;;5.29;75.60
46682;BME280;34101;53.430;-2.224;2024-03-02T05:37:52;98599.64;;;5.26;75.80
46682;BME280;34101;53.430;-2.224;2024-03-02T05:40:20;98599.69;;;5.20;75.90
46682;BME280;34101;53.430;-2.224;2024-03-02T05:42:47;98599.32;;;5.19;75.92
46682;BME280;34101;53.430;-2.224;2024-03-02T05:45:14;98602.23;;;5.19;75.85
46682;BME280;34101;53.430;-2.224;2024-03-02T05:47:41;98600.80;;;5.15;75.87
46682;BME280;34101;53.430;-2.224;2024-03-02T05:50:09;98597.75;;;5.14;76.09
46682;BME280;34101;53.430;-2.224;2024-03-02T05:52:36;98599.75;;;5.13;75.88
46682;BME280;34101;53.430;-2.224;2024-03-02T05:55:05;98597.79;;;5.15;76.00
46682;BME280;34101;53.430;-2.224;2024-03-02T05:57:32;98591.23;;;5.16;76.07
46682;BME280;34101;53.430;-2.224;2024-03-02T05:59:59;98589.68;;;5.25;75.93
46682;BME280;34101;53.430;-2.224;2024-03-02T06:02:27;98589.11;;;5.36;75.72
46682;BME280;34101;53.430;-2.224;2024-03-02T06:04:56;98594.74;;;5.46;75.49
46682;BME280;34101;53.430;-2.224;2024-03-02T06:07:23;98600.47;;;5.54;75.38
46682;BME280;34101;53.430;-2.224;2024-03-02T06:09:51;98602.70;;;5.63;75.05
46682;BME280;34101;53.430;-2.224;2024-03-02T06:12:19;98598.20;;;5.69;74.74
46682;BME280;34101;53.430;-2.224;2024-03-02T06:14:46;98592.59;;;5.71;74.58
46682;BME280;34101;53.430;-2.224;2024-03-02T06:17:14;98592.42;;;5.66;74.55
46682;BME280;34101;53.430;-2.224;2024-03-02T06:19:41;98591.86;;;5.57;74.60
46682;BME280;34101;53.430;-2.224;2024-03-02T06:22:09;98593.20;;;5.50;74.67
46682;BME280;34101;53.430;-2.224;2024-03-02T06:24:36;98594.52;;;5.45;74.93
46682;BME280;34101;53.430;-2.224;2024-03-02T06:27:05;98589.81;;;5.40;75.05
46682;BME280;34101;53.430;-2.224;2024-03-02T06:29:33;98588.91;;;5.35;75.21
46682;BME280;34101;53.430;-2.224;2024-03-02T06:32:01;98590.43;;;5.35;75.25
46682;BME280;34101;53.430;-2.224;2024-03-02T06:34:29;98589.65;;;5.34;75.17
46682;BME280;34101;53.430;-2.224;2024-03-02T06:36:57;98591.03;;;5.35;75.42
46682;BME280;34101;53.430;-2.224;2024-03-02T06:39:25;98592.47;;;5.37;75.39
46682;BME280;34101;53.430;-2.224;2024-03-02T06:41:54;98594.10;;;5.36;75.33
46682;BME280;34101;53.430;-2.224;2024-03-02T06:44:23;98594.35;;;5.33;75.55
46682;BME280;34101;53.430;-2.224;2024-03-02T06:46:50;98595.19;;;5.36;75.59
46682;BME280;34101;53.430;-2.224;2024-03-02T06:49:18;98597.37;;;5.38;75.45
46682;BME280;34101;53.430;-2.224;2024-03-02T06:51:45;98597.90;;;5.39;75.43
46682;BME280;34101;53.430;-2.224;2024-03-02T06:54:12;98598.49;;;5.40;75.26
46682;BME280;34101;53.430;-2.224;2024-03-02T06:56:40;98602.49;;;5.38;75.21
46682;BME280;34101;53.430;-2.224;2024-03-02T06:59:07;98599.58;;;5.38;75.38
46682;BME280;34101;53.430;-2.224;2024-03-02T07:01:36;98600.15;;;5.38;75.45
46682;BME280;34101;53.430;-2.224;2024-03-02T07:04:04;98602.71;;;5.41;75.46
46682;BME280;34101;53.430;-2.224;2024-03-02T07:06:31;98602.30;;;5.43;75.54
46682;BME280;34101;53.430;-2.224;2024-03-02T07:08:59;98601.02;;;5.42;75.50
46682;BME280;34101;53.430;-2.224;2024-03-02T07:11:27;98603.54;;;5.44;75.60
46682;BME280;34101;53.430;-2.224;2024-03-02T07:13:54;98604.03;;;5.46;75.65
46682;BME280;34101;53.430;-2.224;2024-03-02T07:16:22;98605.79;;;5.48;75.66
46682;BME280;34101;53.430;-2.224;2024-03-02T07:18:54;98607.36;;;5.50;75.63
46682;BME280;34101;53.430;-2.224;2024-03-02T07:21:22;98606.18;;;5.52;75.73
46682;BME280;34101;53.430;-2.224;2024-03-02T07:23:49;98607.02;;;5.56;75.64
46682;BME280;34101;53.430;-2.224;2024-03-02T07:26:17;98608.55;;;5.60;75.62
46682;BME280;34101;53.430;-2.224;2024-03-02T07:28:45;98607.96;;;5.62;75.63
46682;BME280;34101;53.430;-2.224;2024-03-02T07:31:14;98609.13;;;5.66;75.55
46682;BME280;34101;53.430;-2.224;2024-03-02T07:33:43;98607.54;;;5.70;75.64
46682;BME280;34101;53.430;-2.224;2024-03-02T07:36:12;98608.87;;;5.74;75.55
46682;BME280;34101;53.430;-2.224;2024-03-02T07:38:39;98608.80;;;5.78;75.43
46682;BME280;34101;53.430;-2.224;2024-03-02T07:41:08;98608.55;;;5.81;75.42
46682;BME280;34101;53.430;-2.224;2024-03-02T07:43:36;98614.40;;;5.83;75.33
46682;BME280;34101;53.430;-2.224;2024-03-02T07:46:04;98613.97;;;5.85;75.23
46682;BME280;34101;53.430;-2.224;2024-03-02T07:48:31;98617.26;;;5.91;75.24
46682;BME280;34101;53.430;-2.224;2024-03-02T07:50:58;98614.05;;;5.98;75.15
46682;BME280;34101;53.430;-2.224;2024-03-02T07:53:26;98614.18;;;6.02;74.94
46682;BME280;34101;53.430;-2.224;2024-03-02T07:55:54;98615.81;;;6.05;74.81
46682;BME280;34101;53.430;-2.224;2024-03-02T07:58:22;98618.69;;;6.10;74.66
46682;BME280;34101;53.430;-2.224;2024-03-02T08:00:49;98620.28;;;6.12;74.81
46682;BME280;34101;53.430;-2.224;2024-03-02T08:03:16;98617.47;;;6.12;74.66
46682;BME280;34101;53.430;-2.224;2024-03-02T08:05:45;98616.30;;;6.16;74.73
46682;BME280;34101;53.430;-2.224;2024-03-02T08:08:13;98622.46;;;6.23;74.57
46682;BME280;34101;53.430;-2.224;2024-03-02T08:10:41;98620.08;;;6.27;74.54
46682;BME280;34101;53.430;-2.224;2024-03-02T08:13:09;98619.50;;;6.33;74.35
46682;BME280;34101;53.430;-2.224;2024-03-02T08:15:36;98617.74;;;6.38;74.27
46682;BME280;34101;53.430;-2.224;2024-03-02T08:18:05;98615.16;;;6.41;74.25
46682;BME280;34101;53.430;-2.224;2024-03-02T08:20:32;98609.27;;;6.45;74.18
46682;BME280;34101;53.430;-2.224;2024-03-02T08:22:59;98616.96;;;6.39;74.20
46682;BME280;34101;53.430;-2.224;2024-03-02T08:25:27;98614.87;;;6.45;74.19
46682;BME280;34101;53.430;-2.224;2024-03-02T08:27:54;98612.99;;;6.47;74.30
46682;BME280;34101;53.430;-2.224;2024-03-02T08:30:21;98613.60;;;6.45;74.09
46682;BME280;34101;53.430;-2.224;2024-03-02T08:32:48;98618.54;;;6.41;73.97
46682;BME280;34101;53.430;-2.224;2024-03-02T08:35:16;98619.81;;;6.33;74.46
46682;BME280;34101;53.430;-2.224;2024-03-02T08:37:44;98623.40;;;6.30;74.93
46682;BME280;34101;53.430;-2.224;2024-03-02T08:40:12;98622.76;;;6.22;75.31
46682;BME280;34101;53.430;-2.224;2024-03-02T08:42:40;98624.80;;;6.14;75.71
46682;BME280;34101;53.430;-2.224;2024-03-02T08:45:09;98624.59;;;6.12;76.22
46682;BME280;34101;53.430;-2.224;2024-03-02T08:47:37;98623.14;;;6.05;76.51
46682;BME280;34101;53.430;-2.224;2024-03-02T08:50:05;98625.80;;;6.01;76.93
46682;BME280;34101;53.430;-2.224;2024-03-02T08:52:32;98628.17;;;6.01;77.18
46682;BME280;34101;53.430;-2.224;2024-03-02T08:55:00;98626.56;;;6.01;77.20
46682;BME280;34101;53.430;-2.224;2024-03-02T08:57:27;98624.35;;;6.05;77.25
46682;BME280;34101;53.430;-2.224;2024-03-02T08:59:55;98618.65;;;6.08;77.36
46682;BME280;34101;53.430;-2.224;2024-03-02T09:02:22;98619.34;;;6.10;77.37
46682;BME280;34101;53.430;-2.224;2024-03-02T09:04:51;98616.68;;;6.07;77.49
46682;BME280;34101;53.430;-2.224;2024-03-02T09:07:19;98612.49;;;6.10;77.75
46682;BME280;34101;53.430;-2.224;2024-03-02T09:09:46;98613.54;;;6.11;77.72
46682;BME280;34101;53.430;-2.224;2024-03-02T09:12:14;98609.47;;;6.12;77.83
46682;BME280;34101;53.430;-2.224;2024-03-02T09:14:42;98607.49;;;6.15;77.82
46682;BME280;34101;53.430;-2.224;2024-03-02T09:17:09;98609.97;;;6.23;77.92
46682;BME280;34101;53.430;-2.224;2024-03-02T09:19:36;98609.54;;;6.32;77.71
46682;BME280;34101;53.430;-2.224;2024-03-02T09:22:04;98613.09;;;6.41;77.79
46682;BME280;34101;53.430;-2.224;2024-03-02T09:24:31;98614.62;;;6.48;77.75
46682;BME280;34101;53.430;-2.224;2024-03-02T09:26:58;98616.26;;;6.58;77.54
46682;BME280;34101;53.430;-2.224;2024-03-02T09:29:26;98613.62;;;6.66;77.62
46682;BME280;34101;53.430;-2.224;2024-03-02T09:31:53;98614.23;;;6.75;77.60
46682;BME280;34101;53.430;-2.224;2024-03-02T09:34:21;98614.39;;;6.83;77.29
46682;BME280;34101;53.430;-2.224;2024-03-02T09:36:48;98613.19;;;6.92;77.15
46682;BME280;34101;53.430;-2.224;2024-03-02T09:39:17;98616.58;;;7.00;76.96
46682;BME280;34101;53.430;-2.224;2024-03-02T09:41:46;98616.67;;;7.03;76.62
46682;BME280;34101;53.430;-2.224;2024-03-02T09:44:14;98616.32;;;7.06;76.38
46682;BME280;34101;53.430;-2.224;2024-03-02T09:46:42;98615.34;;;7.07;76.42
46682;BME280;34101;53.430;-2.224;2024-03-02T09:49:10;98610.91;;;7.10;76.32
46682;BME280;34101;53.430;-2.224;2024-03-02T09:51:38;98607.15;;;7.05;76.13
46682;BME280;34101;53.430;-2.224;2024-03-02T09:54:07;98605.02;;;7.05;76.30
46682;BME280;34101;53.430;-2.224;2024-03-02T09:56:35;98608.27;;;7.06;76.20
46682;BME280;34101;53.430;-2.224;2024-03-02T09:59:02;98607.46;;;7.01;76.47
46682;BME280;34101;53.430;-2.224;2024-03-02T10:01:29;98604.98;;;6.90;76.54
46682;BME280;34101;53.430;-2.224;2024-03-02T10:03:59;98605.53;;;6.90;76.69
46682;BME280;34101;53.430;-2.224;2024-03-02T10:06:28;98603.33;;;6.96;76.88
46682;BME280;34101;53.430;-2.224;2024-03-02T10:08:56;98602.95;;;6.94;77.02
46682;BME280;34101;53.430;-2.224;2024-03-02T10:11:30;98597.85;;;6.93;77.18
46682;BME280;34101;53.430;-2.224;2024-03-02T10:14:06;98599.57;;;6.91;77.26
46682;BME280;34101;53.430;-2.224;2024-03-02T10:16:35;98595.76;;;6.82;77.15
46682;BME280;34101;53.430;-2.224;2024-03-02T10:19:19;98596.22;;;6.83;77.45
46682;BME280;34101;53.430;-2.224;2024-03-02T10:21:53;98595.90;;;6.86;77.62
46682;BME280;34101;53.430;-2.224;2024-03-02T10:24:22;98593.19;;;6.83;78.03
46682;BME280;34101;53.430;-2.224;2024-03-02T10:26:50;98587.68;;;6.89;78.30
46682;BME280;34101;53.430;-2.224;2024-03-02T10:29:18;98587.88;;;6.94;78.51
46682;BME280;34101;53.430;-2.224;2024-03-02T10:31:46;98586.34;;;6.98;78.59
46682;BME280;34101;53.430;-2.224;2024-03-02T10:34:14;98583.78;;;7.10;78.90
46682;BME280;34101;53.430;-2.224;2024-03-02T10:36:43;98585.79;;;7.17;78.87
46682;BME280;34101;53.430;-2.224;2024-03-02T10:39:14;98582.21;;;7.20;79.03
46682;BME280;34101;53.430;-2.224;2024-03-02T10:41:41;98583.79;;;7.21;78.80
46682;BME280;34101;53.430;-2.224;2024-03-02T10:44:10;98576.32;;;7.18;78.77
46682;BME280;34101;53.430;-2.224;2024-03-02T10:46:38;98575.45;;;7.18;78.85
46682;BME280;34101;53.430;-2.224;2024-03-02T10:49:11;98577.39;;;7.26;79.11
46682;BME280;34101;53.430;-2.224;2024-03-02T10:51:39;98574.37;;;7.33;78.94
46682;BME280;34101;53.430;-2.224;2024-03-02T10:54:06;98571.42;;;7.42;78.81
46682;BME280;34101;53.430;-2.224;2024-03-02T10:56:39;98574.80;;;7.46;78.61
46682;BME280;34101;53.430;-2.224;2024-03-02T10:59:15;98578.77;;;7.50;78.40
46682;BME280;34101;53.430;-2.224;2024-03-02T11:01:45;98573.86;;;7.50;78.17
46682;BME280;34101;53.430;-2.224;2024-03-02T11:04:16;98578.49;;;7.51;78.37
46682;BME280;34101;53.430;-2.224;2024-03-02T11:06:49;98582.45;;;7.55;78.41
46682;BME280;34101;53.430;-2.224;2024-03-02T11:09:24;98589.05;;;7.69;78.41
46682;BME280;34101;53.430;-2.224;2024-03-02T11:12:02;98581.64;;;7.62;77.72
46682;BME280;34101;53.430;-2.224;2024-03-02T11:14:31;98580.51;;;7.56;78.01
46682;BME280;34101;53.430;-2.224;2024-03-02T11:17:00;98581.35;;;7.53;78.38
46682;BME280;34101;53.430;-2.224;2024-03-02T11:19:29;98582.51;;;7.57;78.81
46682;BME280;34101;53.430;-2.224;2024-03-02T11:21:58;98582.25;;;7.59;78.53
46682;BME280;34101;53.430;-2.224;2024-03-02T11:24:30;98581.88;;;7.58;78.50
46682;BME280;34101;53.430;-2.224;2024-03-02T11:26:57;98584.93;;;7.63;78.55
46682;BME280;34101;53.430;-2.224;2024-03-02T11:29:43;98584.70;;;7.75;78.57
46682;BME280;34101;53.430;-2.224;2024-03-02T11:32:21;98587.34;;;7.82;78.43
46682;BME280;34101;53.430;-2.224;2024-03-02T11:34:49;98588.87;;;7.69;77.77
46682;BME280;34101;53.430;-2.224;2024-03-02T11:37:17;98584.64;;;7.79;77.55
46682;BME280;34101;53.430;-2.224;2024-03-02T11:39:46;98581.88;;;7.82;76.98
46682;BME280;34101;53.430;-2.224;2024-03-02T11:42:14;98583.37;;;7.90;76.71
46682;BME280;34101;53.430;-2.224;2024-03-02T11:44:45;98581.63;;;7.87;76.56
46682;BME280;34101;53.430;-2.224;2024-03-02T11:47:13;98585.30;;;7.65;75.66
46682;BME280;34101;53.430;-2.224;2024-03-02T11:49:42;98581.64;;;7.76;75.32
46682;BME280;34101;53.430;-2.224;2024-03-02T11:52:11;98583.79;;;7.78;74.88
46682;BME280;34101;53.430;-2.224;2024-03-02T11:54:40;98578.54;;;7.79;74.82
46682;BME280;34101;53.430;-2.224;2024-03-02T11:57:08;98577.92;;;7.80;74.62
46682;BME280;34101;53.430;-2.224;2024-03-02T11:59:36;98574.89;;;7.77;74.18
46682;BME280;34101;53.430;-2.224;2024-03-02T12:02:03;98575.50;;;7.78;74.52
46682;BME280;34101;53.430;-2.224;2024-03-02T12:04:31;98575.27;;;7.75;74.46
46682;BME280;34101;53.430;-2.224;2024-03-02T12:07:00;98571.93;;;7.67;74.78
46682;BME280;34101;53.430;-2.224;2024-03-02T12:09:29;98566.30;;;7.56;75.10
46682;BME280;34101;53.430;-2.224;2024-03-02T12:12:05;98561.01;;;7.61;75.04
46682;BME280;34101;53.430;-2.224;2024-03-02T12:14:35;98559.82;;;7.75;75.30
46682;BME280;34101;53.430;-2.224;2024-03-02T12:17:04;98556.05;;;7.93;75.76
46682;BME280;34101;53.430;-2.224;2024-03-02T12:19:33;98555.14;;;7.86;75.06
46682;BME280;34101;53.430;-2.224;2024-03-02T12:22:00;98553.55;;;7.99;74.97
46682;BME280;34101;53.430;-2.224;2024-03-02T12:24:29;98551.28;;;8.14;74.51
46682;BME280;34101;53.430;-2.224;2024-03-02T12:26:57;98549.10;;;8.29;74.27
46682;BME280;34101;53.430;-2.224;2024-03-02T12:29:25;98549.54;;;8.36;73.05
46682;BME280;34101;53.430;-2.224;2024-03-02T12:31:52;98546.31;;;8.38;72.76
46682;BME280;34101;53.430;-2.224;2024-03-02T12:34:22;98543.54;;;8.44;72.78
46682;BME280;34101;53.430;-2.224;2024-03-02T12:36:49;98540.94;;;8.48;72.90
46682;BME280;34101;53.430;-2.224;2024-03-02T12:39:17;98540.51;;;8.61;72.92
46682;BME280;34101;53.430;-2.224;2024-03-02T12:41:46;98536.54;;;8.63;73.03
46682;BME280;34101;53.430;-2.224;2024-03-02T12:44:14;98539.40;;;8.57;72.75
46682;BME280;34101;53.430;-2.224;2024-03-02T12:46:42;98535.68;;;8.56;73.58
46682;BME280;34101;53.430;-2.224;2024-03-02T12:49:10;98534.57;;;8.58;74.20
46682;BME280;34101;53.430;-2.224;2024-03-02T12:51:39;98535.74;;;8.52;74.86
46682;BME280;34101;53.430;-2.224;2024-03-02T12:54:07;98536.09;;;8.50;75.29
46682;BME280;34101;53.430;-2.224;2024-03-02T12:56:36;98532.53;;;8.43;75.38
46682;BME280;34101;53.430;-2.224;2024-03-02T12:59:03;98527.67;;;8.48;75.77
46682;BME280;34101;53.430;-2.224;2024-03-02T13:01:32;98525.54;;;8.54;76.13
46682;BME280;34101;53.430;-2.224;2024-03-02T13:03:59;98524.61;;;8.66;76.68
46682;BME280;34101;53.430;-2.224;2024-03-02T13:06:26;98525.71;;;8.77;76.75